Agua Nueva, Texas
Current Conditions -  °F | °C
As of 9:15 PM on Thursday 18 Dec 2014 (Local Time) from KHBV Reporting Station
Overcast Overcast  
Wind Chill: 64°   Ceiling: 200
Heat Index: 64°   Visibility: 1.2mi
Dew Point: 63°   Wind: 0mph
Humidity: 96%   Direction: NA
Pressure: 30"   Gusts: NA
Location:  27.0695°N, 98.7494°W
Report Text: KHBV 190315Z AUTO 00000KT 1 1/4SM OVC002 18/17 A3000 RMK AO2 T01780171 PWINO
Loading
Personal Weather Stations






























Interactive Weather Map New forecast layout! Learn more

10-Day Weather Forecast

Advertisements
Track Severe Weather on mobile